createdAt,value
2018-10-07T00:02:25.103Z,14.20
2018-10-07T00:04:52.408Z,14.20
2018-10-07T00:07:19.628Z,14.10
2018-10-07T00:09:47.246Z,14.10
2018-10-07T00:12:14.418Z,14.10
2018-10-07T00:14:41.723Z,14.20
2018-10-07T00:17:09.043Z,14.20
2018-10-07T00:19:36.281Z,14.20
2018-10-07T00:22:03.797Z,14.20
2018-10-07T00:24:30.982Z,14.20
2018-10-07T00:26:58.286Z,14.20
2018-10-07T00:29:25.567Z,14.10
2018-10-07T00:31:58.582Z,14.20
2018-10-07T00:34:26.030Z,14.20
2018-10-07T00:36:53.336Z,14.10
2018-10-07T00:39:20.651Z,14.10
2018-10-07T00:41:47.949Z,14.10
2018-10-07T00:44:15.566Z,14.20
2018-10-07T00:46:42.897Z,14.20
2018-10-07T00:49:10.238Z,14.20
2018-10-07T00:51:37.434Z,14.20
2018-10-07T00:54:04.751Z,14.20
2018-10-07T00:56:31.937Z,14.20
2018-10-07T00:58:59.250Z,14.20
2018-10-07T01:01:26.494Z,14.10
2018-10-07T01:03:53.810Z,14.10
2018-10-07T01:06:21.051Z,14.20
2018-10-07T01:08:48.334Z,14.20
2018-10-07T01:11:15.605Z,14.20
2018-10-07T01:13:42.880Z,14.20
2018-10-07T01:16:10.182Z,14.20
2018-10-07T01:18:37.456Z,14.20
2018-10-07T01:21:04.715Z,14.20
2018-10-07T01:23:31.961Z,14.10
2018-10-07T01:25:59.249Z,14.10
2018-10-07T01:28:26.695Z,14.00
2018-10-07T01:30:53.894Z,14.00
2018-10-07T01:33:21.181Z,14.00
2018-10-07T01:35:48.398Z,14.00
2018-10-07T01:38:15.741Z,14.00
2018-10-07T01:40:43.010Z,14.00
2018-10-07T01:43:10.241Z,14.00
2018-10-07T01:45:37.586Z,14.00
2018-10-07T01:48:04.934Z,13.90
2018-10-07T01:50:32.258Z,13.90
2018-10-07T01:52:59.557Z,13.90
2018-10-07T01:55:26.812Z,13.90
2018-10-07T01:57:54.403Z,13.90
2018-10-07T02:00:21.672Z,13.90
2018-10-07T02:02:48.865Z,14.00
2018-10-07T02:05:16.134Z,13.90
2018-10-07T02:07:43.390Z,13.90
2018-10-07T02:10:10.702Z,14.00
2018-10-07T02:12:37.902Z,14.00
2018-10-07T02:15:05.264Z,14.10
2018-10-07T02:17:32.580Z,14.10
2018-10-07T02:19:59.902Z,14.10
2018-10-07T02:22:27.093Z,14.10
2018-10-07T02:24:54.395Z,14.20
2018-10-07T02:27:21.624Z,14.30
2018-10-07T02:29:48.918Z,14.30
2018-10-07T02:32:16.110Z,14.30
2018-10-07T02:34:43.351Z,14.30
2018-10-07T02:37:10.670Z,14.40
2018-10-07T02:39:37.878Z,14.30
2018-10-07T02:42:05.997Z,14.20
2018-10-07T02:44:33.285Z,14.30
2018-10-07T02:47:00.735Z,14.20
2018-10-07T02:49:27.942Z,14.20
2018-10-07T02:51:55.229Z,14.20
2018-10-07T02:54:22.817Z,14.20
2018-10-07T02:56:50.085Z,14.10
2018-10-07T02:59:17.402Z,14.10
2018-10-07T03:01:44.580Z,14.10
2018-10-07T03:04:11.839Z,14.10
2018-10-07T03:06:39.138Z,14.10
2018-10-07T03:09:07.096Z,14.10
2018-10-07T03:11:34.498Z,14.10
2018-10-07T03:14:01.767Z,13.90
2018-10-07T03:16:29.087Z,14.00
2018-10-07T03:18:56.269Z,14.10
2018-10-07T03:21:23.526Z,14.10
2018-10-07T03:23:50.766Z,14.00
2018-10-07T03:26:18.045Z,14.00
2018-10-07T03:28:45.330Z,14.00
2018-10-07T03:31:12.594Z,13.90
2018-10-07T03:33:39.781Z,14.00
2018-10-07T03:36:07.091Z,13.90
2018-10-07T03:38:34.293Z,13.60
2018-10-07T03:41:01.603Z,13.50
2018-10-07T03:43:28.819Z,13.30
2018-10-07T03:45:56.102Z,13.10
2018-10-07T03:48:23.309Z,12.90
2018-10-07T03:50:50.576Z,12.70
2018-10-07T03:53:18.046Z,12.50
2018-10-07T03:55:45.317Z,12.40
2018-10-07T03:58:12.890Z,12.10
2018-10-07T04:00:40.130Z,12.10
2018-10-07T04:03:07.343Z,12.10
2018-10-07T04:05:34.593Z,12.00
2018-10-07T04:08:01.862Z,12.00
2018-10-07T04:10:29.091Z,12.00
2018-10-07T04:12:56.353Z,11.90
2018-10-07T04:15:23.601Z,11.80
2018-10-07T04:17:50.845Z,11.80
2018-10-07T04:20:18.034Z,11.80
2018-10-07T04:22:45.277Z,11.60
2018-10-07T04:25:12.535Z,11.60
2018-10-07T04:27:39.774Z,11.60
2018-10-07T04:30:07.058Z,11.50
2018-10-07T04:32:34.221Z,11.40
2018-10-07T04:35:01.546Z,11.40
2018-10-07T04:37:28.816Z,11.40
2018-10-07T04:39:56.085Z,11.30
2018-10-07T04:42:23.266Z,11.10
2018-10-07T04:44:50.574Z,11.00
2018-10-07T04:47:17.770Z,10.90
2018-10-07T04:49:45.031Z,10.90
2018-10-07T04:52:12.309Z,10.80
2018-10-07T04:54:39.526Z,10.70
2018-10-07T04:57:06.830Z,10.70
2018-10-07T04:59:34.045Z,10.60
2018-10-07T05:02:01.353Z,10.50
2018-10-07T05:04:28.585Z,10.40
2018-10-07T05:06:55.934Z,10.30
2018-10-07T05:09:23.166Z,10.20
2018-10-07T05:11:51.726Z,10.10
2018-10-07T05:14:19.090Z,10.10
2018-10-07T05:16:49.797Z,10.00
2018-10-07T05:19:17.018Z,10.00
2018-10-07T05:21:44.408Z,10.00
2018-10-07T05:24:11.698Z,10.00
2018-10-07T05:26:38.943Z,10.00
2018-10-07T05:29:06.196Z,10.10
2018-10-07T05:31:33.490Z,10.10
2018-10-07T05:34:31.694Z,10.00
2018-10-07T05:36:58.924Z,9.90
2018-10-07T05:39:26.166Z,9.80
2018-10-07T05:41:53.361Z,9.90
2018-10-07T05:44:20.660Z,9.90
2018-10-07T05:46:47.878Z,10.00
2018-10-07T05:49:15.139Z,9.90
2018-10-07T05:51:42.410Z,9.90
2018-10-07T05:54:09.650Z,9.90
2018-10-07T05:56:36.973Z,9.90
2018-10-07T05:59:05.564Z,9.80
2018-10-07T06:01:36.689Z,9.80
2018-10-07T06:04:14.706Z,9.90
2018-10-07T06:06:42.026Z,9.90
2018-10-07T06:09:18.394Z,9.90
2018-10-07T06:11:45.606Z,9.90
2018-10-07T06:15:26.503Z,9.90
2018-10-07T06:17:53.741Z,9.80
2018-10-07T06:20:21.014Z,9.90
2018-10-07T06:22:48.345Z,9.80
2018-10-07T06:25:15.666Z,9.90
2018-10-07T06:27:42.860Z,9.90
2018-10-07T06:30:10.075Z,9.90
2018-10-07T06:32:37.454Z,9.90
2018-10-07T06:35:04.713Z,9.80
2018-10-07T06:37:31.981Z,9.80
2018-10-07T06:39:59.348Z,9.80
2018-10-07T06:42:26.586Z,9.80
2018-10-07T06:44:53.842Z,9.80
2018-10-07T06:47:21.094Z,9.70
2018-10-07T06:49:48.387Z,9.70
2018-10-07T06:52:15.582Z,9.60
2018-10-07T06:54:42.893Z,9.70
2018-10-07T06:57:10.168Z,9.80
2018-10-07T06:59:37.531Z,9.70
2018-10-07T07:02:04.809Z,9.70
2018-10-07T07:04:32.063Z,9.70
2018-10-07T07:06:59.294Z,9.70
2018-10-07T07:09:26.602Z,9.70
2018-10-07T07:11:53.837Z,9.70
2018-10-07T07:14:21.103Z,9.80
2018-10-07T07:16:48.354Z,9.80
2018-10-07T07:19:15.570Z,9.80
2018-10-07T07:21:42.870Z,9.70
2018-10-07T07:24:10.161Z,9.70
2018-10-07T07:26:37.467Z,9.60
2018-10-07T07:29:04.708Z,9.70
2018-10-07T07:31:32.040Z,9.60
2018-10-07T07:33:59.149Z,9.80
2018-10-07T07:36:26.555Z,9.90
2018-10-07T07:38:53.797Z,9.90
2018-10-07T07:41:21.075Z,9.90
2018-10-07T07:43:48.325Z,9.90
2018-10-07T07:46:15.525Z,10.00
2018-10-07T07:48:42.823Z,9.90
2018-10-07T07:51:10.042Z,10.00
2018-10-07T07:53:37.536Z,10.00
2018-10-07T07:56:04.753Z,10.00
2018-10-07T07:58:32.033Z,10.10
2018-10-07T08:00:59.338Z,10.00
2018-10-07T08:03:26.698Z,10.00
2018-10-07T08:05:54.100Z,10.20
2018-10-07T08:08:21.282Z,10.30
2018-10-07T08:10:48.558Z,10.30
2018-10-07T08:13:15.824Z,10.30
2018-10-07T08:15:43.070Z,10.30
2018-10-07T08:18:10.394Z,10.40
2018-10-07T08:20:37.586Z,10.40
2018-10-07T08:23:05.037Z,10.40
2018-10-07T08:25:32.352Z,10.40
2018-10-07T08:27:59.558Z,10.50
2018-10-07T08:30:26.724Z,10.60
2018-10-07T08:32:53.896Z,10.60
2018-10-07T08:35:21.176Z,10.70
2018-10-07T08:37:48.250Z,10.70
2018-10-07T08:40:15.450Z,10.60
2018-10-07T08:42:42.653Z,10.60
2018-10-07T08:45:09.846Z,10.70
2018-10-07T08:47:37.006Z,10.70
2018-10-07T08:50:04.199Z,10.70
2018-10-07T08:52:31.445Z,10.80
2018-10-07T08:54:58.590Z,10.90
2018-10-07T08:57:25.786Z,11.00
2018-10-07T08:59:52.949Z,11.10
2018-10-07T09:02:20.089Z,11.30
2018-10-07T09:04:47.262Z,11.40
2018-10-07T09:07:14.551Z,11.60
2018-10-07T09:09:41.712Z,11.70
2018-10-07T09:12:08.937Z,11.80
2018-10-07T09:14:36.208Z,11.80
2018-10-07T09:17:03.385Z,11.70
2018-10-07T09:19:30.565Z,11.80
2018-10-07T09:21:57.741Z,11.70
2018-10-07T09:24:24.898Z,11.70
2018-10-07T09:26:52.272Z,11.80
2018-10-07T09:29:19.375Z,11.80
2018-10-07T09:31:46.574Z,12.00
2018-10-07T09:34:13.905Z,12.20
2018-10-07T09:36:41.161Z,12.30
2018-10-07T09:39:09.597Z,12.50
2018-10-07T09:41:37.054Z,12.50
2018-10-07T09:44:04.282Z,12.30
2018-10-07T09:46:31.925Z,12.30
2018-10-07T09:48:59.147Z,12.40
2018-10-07T09:51:26.337Z,12.30
2018-10-07T09:53:53.561Z,12.30
2018-10-07T09:56:20.701Z,12.20
2018-10-07T09:58:48.031Z,12.10
2018-10-07T10:01:15.311Z,12.00
2018-10-07T10:03:42.627Z,12.20
2018-10-07T10:06:09.796Z,12.20
2018-10-07T10:08:37.127Z,12.40
2018-10-07T10:11:04.364Z,12.50
2018-10-07T10:13:31.627Z,12.70
2018-10-07T10:15:59.046Z,12.80
2018-10-07T10:18:36.554Z,13.00
2018-10-07T10:21:08.250Z,13.40
2018-10-07T10:23:47.286Z,13.70
2018-10-07T10:26:19.630Z,13.70
2018-10-07T10:29:05.806Z,13.60
2018-10-07T10:31:48.921Z,13.20
2018-10-07T10:36:33.050Z,13.10
2018-10-07T10:39:21.903Z,12.90
2018-10-07T10:42:12.773Z,12.90
2018-10-07T10:44:45.915Z,13.00
2018-10-07T10:47:29.723Z,13.10
2018-10-07T10:50:54.290Z,13.30
2018-10-07T10:53:47.239Z,13.30
2018-10-07T10:56:24.377Z,13.50
2018-10-07T10:59:02.382Z,13.60
2018-10-07T11:01:33.408Z,13.60
2018-10-07T11:04:11.743Z,13.70
2018-10-07T11:06:52.358Z,13.90
2018-10-07T11:09:39.120Z,14.20
2018-10-07T11:12:12.738Z,14.60
2018-10-07T11:15:04.290Z,14.60
2018-10-07T11:19:47.519Z,14.70
2018-10-07T11:22:53.206Z,14.30
2018-10-07T11:25:30.365Z,13.90
2018-10-07T11:28:10.638Z,14.00
2018-10-07T11:30:48.066Z,13.90
2018-10-07T11:33:31.014Z,14.10
2018-10-07T11:37:07.440Z,14.30
2018-10-07T11:39:49.481Z,14.60
2018-10-07T11:42:36.278Z,14.90
2018-10-07T11:45:09.139Z,14.70
2018-10-07T11:47:58.983Z,14.80
2018-10-07T11:51:40.045Z,15.10
2018-10-07T11:54:09.317Z,15.20
2018-10-07T11:56:36.785Z,14.90
2018-10-07T11:59:04.189Z,14.60
2018-10-07T12:01:31.341Z,14.50
2018-10-07T12:03:58.487Z,14.60
2018-10-07T12:06:25.650Z,14.90
2018-10-07T12:08:58.017Z,15.10
2018-10-07T12:11:25.159Z,15.20
2018-10-07T12:13:52.351Z,15.30
2018-10-07T12:16:19.538Z,15.60
2018-10-07T12:18:46.844Z,16.10
2018-10-07T12:21:14.314Z,15.90
2018-10-07T12:23:41.610Z,15.90
2018-10-07T12:26:08.803Z,15.70
2018-10-07T12:28:36.228Z,16.80
2018-10-07T12:31:03.458Z,17.70
2018-10-07T12:33:30.653Z,20.20
2018-10-07T12:35:57.891Z,22.20
2018-10-07T12:38:25.190Z,24.50
2018-10-07T12:40:52.400Z,26.20
2018-10-07T12:43:19.715Z,26.40
2018-10-07T12:45:46.972Z,27.40
2018-10-07T12:48:14.243Z,27.20
2018-10-07T12:50:41.513Z,27.60
2018-10-07T12:53:08.782Z,28.50
2018-10-07T12:55:36.013Z,29.30
2018-10-07T12:58:03.240Z,28.10
2018-10-07T13:00:30.402Z,28.60
2018-10-07T13:02:57.714Z,28.00
2018-10-07T13:05:24.914Z,27.50
2018-10-07T13:07:52.183Z,24.80
2018-10-07T13:10:19.353Z,24.60
2018-10-07T13:12:46.544Z,24.00
2018-10-07T13:15:13.730Z,24.80
2018-10-07T13:17:40.890Z,24.70
2018-10-07T13:20:08.059Z,25.40
2018-10-07T13:22:35.222Z,24.80
2018-10-07T13:25:02.474Z,25.60
2018-10-07T13:27:30.167Z,26.50
2018-10-07T13:29:57.346Z,25.50
2018-10-07T13:32:24.530Z,24.30
2018-10-07T13:34:51.713Z,23.80
2018-10-07T13:37:18.906Z,22.60
2018-10-07T13:39:46.294Z,22.60
2018-10-07T13:42:13.462Z,22.10
2018-10-07T13:44:40.661Z,23.30
2018-10-07T13:47:07.861Z,24.70
2018-10-07T13:49:35.017Z,24.90
2018-10-07T13:52:02.230Z,24.50
2018-10-07T13:54:29.401Z,23.90
2018-10-07T13:56:56.628Z,23.10
2018-10-07T13:59:23.850Z,23.10
2018-10-07T14:01:50.997Z,24.50
2018-10-07T14:04:18.194Z,25.70
2018-10-07T14:06:45.358Z,26.30
2018-10-07T14:09:12.538Z,26.60
2018-10-07T14:11:39.784Z,25.70
2018-10-07T14:14:06.976Z,25.90
2018-10-07T14:16:34.150Z,26.40
2018-10-07T14:19:01.317Z,26.10
2018-10-07T14:21:28.494Z,26.60
2018-10-07T14:23:55.773Z,26.00
2018-10-07T14:26:23.043Z,25.20
2018-10-07T14:28:51.278Z,24.30
2018-10-07T14:31:18.466Z,23.40
2018-10-07T14:33:45.652Z,23.40
2018-10-07T14:36:12.917Z,23.40
2018-10-07T14:38:40.277Z,22.90
2018-10-07T14:41:07.488Z,21.90
2018-10-07T14:43:34.786Z,20.80
2018-10-07T14:46:02.071Z,20.30
2018-10-07T14:48:29.310Z,19.80
2018-10-07T14:50:56.565Z,19.20
2018-10-07T14:53:23.906Z,19.20
2018-10-07T14:55:51.163Z,19.70
2018-10-07T14:58:18.414Z,19.50
2018-10-07T15:00:45.814Z,20.20
2018-10-07T15:03:13.047Z,20.70
2018-10-07T15:05:40.456Z,22.00
2018-10-07T15:08:08.109Z,21.70
2018-10-07T15:10:35.426Z,21.50
2018-10-07T15:13:02.689Z,21.60
2018-10-07T15:15:29.914Z,21.50
2018-10-07T15:17:57.215Z,21.30
2018-10-07T15:20:24.422Z,20.70
2018-10-07T15:22:51.667Z,20.30
2018-10-07T15:25:18.905Z,20.20
2018-10-07T15:27:46.157Z,20.40
2018-10-07T15:30:13.454Z,20.10
2018-10-07T15:32:40.655Z,20.20
2018-10-07T15:35:07.886Z,19.80
2018-10-07T15:37:35.315Z,19.80
2018-10-07T15:40:02.630Z,19.40
2018-10-07T15:42:29.931Z,19.00
2018-10-07T15:44:57.127Z,18.80
2018-10-07T15:47:24.372Z,18.70
2018-10-07T15:49:51.631Z,18.30
2018-10-07T15:52:18.946Z,17.90
2018-10-07T15:54:46.232Z,17.50
2018-10-07T15:57:13.507Z,17.30
2018-10-07T15:59:40.758Z,17.30
2018-10-07T16:02:08.295Z,17.20
2018-10-07T16:04:35.803Z,17.10
2018-10-07T16:07:03.090Z,17.00
2018-10-07T16:09:30.319Z,16.90
2018-10-07T16:11:57.575Z,16.80
2018-10-07T16:14:24.803Z,16.70
2018-10-07T16:16:52.018Z,16.60
2018-10-07T16:19:19.315Z,16.40
2018-10-07T16:21:46.659Z,16.20
2018-10-07T16:24:13.939Z,16.00
2018-10-07T16:26:41.322Z,15.90
2018-10-07T16:29:09.338Z,15.60
2018-10-07T16:31:37.068Z,15.40
2018-10-07T16:34:04.298Z,15.00
2018-10-07T16:36:31.548Z,14.80
2018-10-07T16:38:58.985Z,14.50
2018-10-07T16:41:26.189Z,14.30
2018-10-07T16:43:53.409Z,14.00
2018-10-07T16:46:20.883Z,13.70
2018-10-07T16:48:48.566Z,13.60
2018-10-07T16:51:15.791Z,13.40
2018-10-07T16:53:42.994Z,13.20
2018-10-07T16:56:11.840Z,13.10
2018-10-07T16:58:39.109Z,12.90
2018-10-07T17:01:06.339Z,12.70
2018-10-07T17:03:33.708Z,12.50
2018-10-07T17:06:00.981Z,12.30
2018-10-07T17:08:28.177Z,12.20
2018-10-07T17:10:55.366Z,12.10
2018-10-07T17:13:22.700Z,12.10
2018-10-07T17:15:49.822Z,11.90
2018-10-07T17:18:17.001Z,11.80
2018-10-07T17:20:44.266Z,11.80
2018-10-07T17:23:11.453Z,11.70
2018-10-07T17:25:38.734Z,11.60
2018-10-07T17:28:06.088Z,11.50
2018-10-07T17:30:33.445Z,11.40
2018-10-07T17:33:00.778Z,11.30
2018-10-07T17:35:28.214Z,11.20
2018-10-07T17:37:55.422Z,11.10
2018-10-07T17:40:22.670Z,11.00
2018-10-07T17:42:50.005Z,10.90
2018-10-07T17:45:17.218Z,10.80
2018-10-07T17:47:44.509Z,10.70
2018-10-07T17:50:11.755Z,10.60
2018-10-07T17:52:39.027Z,10.50
2018-10-07T17:55:06.273Z,10.40
2018-10-07T17:57:33.487Z,10.20
2018-10-07T18:00:00.765Z,10.20
2018-10-07T18:02:27.960Z,10.10
2018-10-07T18:04:55.237Z,10.00
2018-10-07T18:07:22.633Z,9.90
2018-10-07T18:09:49.881Z,9.80
2018-10-07T18:12:17.115Z,9.80
2018-10-07T18:14:44.352Z,9.70
2018-10-07T18:17:11.551Z,9.60
2018-10-07T18:19:38.763Z,9.60
2018-10-07T18:22:05.965Z,9.50
2018-10-07T18:24:33.178Z,9.40
2018-10-07T18:27:00.393Z,9.30
2018-10-07T18:29:27.612Z,9.20
2018-10-07T18:31:54.793Z,9.10
2018-10-07T18:34:22.123Z,9.00
2018-10-07T18:36:49.230Z,8.90
2018-10-07T18:39:16.391Z,8.90
2018-10-07T18:41:43.880Z,8.80
2018-10-07T18:44:11.144Z,8.70
2018-10-07T18:46:38.433Z,8.70
2018-10-07T18:49:05.857Z,8.60
2018-10-07T18:51:33.079Z,8.50
2018-10-07T18:54:00.301Z,8.40
2018-10-07T18:56:27.511Z,8.40
2018-10-07T18:58:54.748Z,8.30
2018-10-07T19:01:21.976Z,8.10
2018-10-07T19:03:49.161Z,8.10
2018-10-07T19:06:16.414Z,8.10
2018-10-07T19:08:43.674Z,8.10
2018-10-07T19:11:10.878Z,8.00
2018-10-07T19:13:38.138Z,7.90
2018-10-07T19:16:05.398Z,7.90
2018-10-07T19:18:32.656Z,7.90
2018-10-07T19:21:00.147Z,7.80
2018-10-07T19:23:27.467Z,7.70
2018-10-07T19:25:54.687Z,7.70
2018-10-07T19:28:22.031Z,7.50
2018-10-07T19:30:49.311Z,7.50
2018-10-07T19:33:16.522Z,7.50
2018-10-07T19:35:43.844Z,7.60
2018-10-07T19:38:11.091Z,7.60
2018-10-07T19:40:38.394Z,7.40
2018-10-07T19:43:05.714Z,7.40
2018-10-07T19:45:32.938Z,7.40
2018-10-07T19:48:00.346Z,7.40
2018-10-07T19:50:27.549Z,7.40
2018-10-07T19:52:57.638Z,7.30
2018-10-07T19:55:33.576Z,7.30
2018-10-07T19:58:00.775Z,7.30
2018-10-07T20:00:27.986Z,7.10
2018-10-07T20:02:55.262Z,7.00
2018-10-07T20:05:22.450Z,6.90
2018-10-07T20:07:49.711Z,7.00
2018-10-07T20:10:16.938Z,7.00
2018-10-07T20:12:44.117Z,7.00
2018-10-07T20:15:11.311Z,7.00
2018-10-07T20:17:38.516Z,7.00
2018-10-07T20:20:06.021Z,7.00
2018-10-07T20:22:33.225Z,6.90
2018-10-07T20:25:00.576Z,6.90
2018-10-07T20:27:27.785Z,6.90
2018-10-07T20:29:55.067Z,6.80
2018-10-07T20:32:22.351Z,6.80
2018-10-07T20:34:49.622Z,6.80
2018-10-07T20:37:16.827Z,6.70
2018-10-07T20:39:44.058Z,6.70
2018-10-07T20:42:11.251Z,6.70
2018-10-07T20:44:38.547Z,6.60
2018-10-07T20:47:05.763Z,6.60
2018-10-07T20:49:32.989Z,6.60
2018-10-07T20:52:00.260Z,6.50
2018-10-07T20:54:27.487Z,6.50
2018-10-07T20:56:54.745Z,6.30
2018-10-07T20:59:21.987Z,6.30
2018-10-07T21:01:49.210Z,6.30
2018-10-07T21:04:16.406Z,6.20
2018-10-07T21:06:43.610Z,6.20
2018-10-07T21:09:11.673Z,6.20
2018-10-07T21:11:39.205Z,6.10
2018-10-07T21:14:06.413Z,6.00
2018-10-07T21:16:33.593Z,6.10
2018-10-07T21:19:00.794Z,6.00
2018-10-07T21:21:28.008Z,5.90
2018-10-07T21:23:55.358Z,5.90
2018-10-07T21:26:22.637Z,5.80
2018-10-07T21:28:49.830Z,5.80
2018-10-07T21:31:17.058Z,5.90
2018-10-07T21:33:44.242Z,5.90
2018-10-07T21:36:11.547Z,5.90
2018-10-07T21:38:38.786Z,5.80
2018-10-07T21:41:06.029Z,5.80
2018-10-07T21:43:33.226Z,5.80
2018-10-07T21:46:00.429Z,5.80
2018-10-07T21:48:27.594Z,5.70
2018-10-07T21:50:54.997Z,5.70
2018-10-07T21:53:22.357Z,5.60
2018-10-07T21:55:49.557Z,5.60
2018-10-07T21:58:16.741Z,5.60
2018-10-07T22:00:43.962Z,5.60
2018-10-07T22:03:11.245Z,5.50
2018-10-07T22:05:38.462Z,5.50
2018-10-07T22:08:05.694Z,5.50
2018-10-07T22:10:32.881Z,5.50
2018-10-07T22:13:00.047Z,5.40
2018-10-07T22:15:27.343Z,5.30
2018-10-07T22:17:54.598Z,5.30
2018-10-07T22:20:21.806Z,5.30
2018-10-07T22:22:48.974Z,5.20
2018-10-07T22:25:16.153Z,5.10
2018-10-07T22:27:43.385Z,5.00
2018-10-07T22:30:10.638Z,5.00
2018-10-07T22:32:37.842Z,5.00
2018-10-07T22:35:05.104Z,5.00
2018-10-07T22:37:32.354Z,5.10
2018-10-07T22:39:59.599Z,5.10
2018-10-07T22:42:26.845Z,5.10
2018-10-07T22:44:54.108Z,5.00
2018-10-07T22:47:21.291Z,5.00
2018-10-07T22:49:48.482Z,4.90
2018-10-07T22:52:15.751Z,4.80
2018-10-07T22:54:42.907Z,4.80
2018-10-07T22:57:10.107Z,4.80
2018-10-07T22:59:37.313Z,4.80
2018-10-07T23:02:04.686Z,4.80
2018-10-07T23:04:32.037Z,4.80
2018-10-07T23:06:59.621Z,4.80
2018-10-07T23:09:26.953Z,4.80
2018-10-07T23:11:54.254Z,4.60
2018-10-07T23:14:21.510Z,4.50
2018-10-07T23:16:48.852Z,4.50
2018-10-07T23:19:16.493Z,4.40
2018-10-07T23:21:44.043Z,4.50
2018-10-07T23:24:11.736Z,4.50
2018-10-07T23:26:39.114Z,4.50
2018-10-07T23:29:06.461Z,4.50
2018-10-07T23:31:33.798Z,4.50
2018-10-07T23:34:01.146Z,4.50
2018-10-07T23:36:28.499Z,4.50
2018-10-07T23:38:55.994Z,4.40
2018-10-07T23:41:23.436Z,4.30
2018-10-07T23:43:50.997Z,4.30
2018-10-07T23:46:18.329Z,4.20
2018-10-07T23:48:45.530Z,4.30
2018-10-07T23:51:12.846Z,4.30
2018-10-07T23:53:40.055Z,4.20
2018-10-07T23:56:07.320Z,4.30
2018-10-07T23:58:34.566Z,4.30
